Latest Weather Observations for Christmas Island

IDW60801

Issued at 10:13 pm WST Monday 19 November 2018 (issued every 10 minutes, with the page automatically refreshed every 10 minutes)

About weather observations | Map of weather stations | Latest weather observations for WA | Other Formats
Station Details ID: 200790 Name: CHRISTMAS ISLAND AERO Lat: -10.45 Lon: 105.69 Height: 261.0 m
Data from the previous 72 hours. | See also: Recent months at Christmas Island
Date/Time
WST
Temp
°C
App
Temp
°C
Dew
Point
°C
Rel
Hum
%
Delta-T
°C
Wind Press
QNH
hPa
Press
MSL
hPa
Rain since
9am
mm
Dir  Spd
km/h
Gust
km/h
Spd
kts
Gust
kts
19/10:00pm 24.4 - - - - SE 17 24 9 13 1015.5 1014.0 0.0
19/09:36pm 24.4 - - - - SE 17 24 9 13 1015.2 - 0.0
19/09:30pm 24.4 - - - - SE 19 32 10 17 1015.2 - 0.0
19/09:00pm 24.5 - - - - SE 17 24 9 13 1015.0 - 0.0
19/08:30pm 24.5 - - - - SE 15 20 8 11 1014.7 - 0.0
19/08:25pm 24.5 - - - - SE 13 24 7 13 1014.7 - 0.0
19/08:00pm 24.7 - - - - SE 19 24 10 13 1014.2 - 0.0
19/07:30pm 24.7 - - - - SE 17 24 9 13 1013.8 - 0.0
19/07:29pm 24.7 - - - - SE 17 24 9 13 1013.7 - 0.0
19/07:00pm 24.7 - - - - SE 15 22 8 12 1013.5 1012.0 0.0
19/06:30pm 25.0 - - - - SE 15 24 8 13 1013.1 - 0.0
19/06:00pm 25.5 - - - - SE 15 26 8 14 1013.0 - 0.0
19/05:57pm 25.7 - - - - SSE 13 26 7 14 1013.0 - 0.0
19/05:30pm 25.9 - - - - SE 15 24 8 13 1012.8 - 0.0
19/05:00pm 26.3 - - - - SSE 17 26 9 14 1012.9 - 0.0
19/04:30pm 26.2 - - - - SE 19 28 10 15 1013.0 - 0.0
19/04:00pm 26.7 - - - - SE 17 24 9 13 1013.1 1011.6 0.0
19/03:30pm 26.6 - - - - SE 22 32 12 17 1013.5 - 0.0
19/03:05pm 27.3 - - - - SSE 17 26 9 14 1013.7 - 0.0
19/03:02pm 27.7 - - - - SSE 17 26 9 14 1013.7 - 0.0
19/03:00pm 27.1 - - - - SSE 17 26 9 14 1013.8 - 0.0
19/02:30pm 27.0 - - - - SE 17 24 9 13 1014.2 - 0.0
19/02:00pm 27.9 - - - - SSE 13 22 7 12 1014.5 - 0.0
19/01:32pm 27.2 - - - - SE 15 24 8 13 1014.9 - 0.0
19/01:30pm 26.9 - - - - SE 17 24 9 13 1014.9 - 0.0
19/01:00pm 26.9 - - - - SE 19 30 10 16 1015.1 1013.6 0.0
19/12:30pm 27.2 - - - - SE 17 24 9 13 1015.3 - 0.0
19/12:16pm 27.8 - - - - SE 17 24 9 13 1015.5 - 0.0
19/12:00pm 26.7 - - - - SSE 15 22 8 12 1015.7 - 0.0
19/11:30am 26.7 - - - - SE 17 28 9 15 1016.2 - 0.0
19/11:20am 26.6 - - - - SE 19 30 10 16 1016.3 - 0.0
19/11:13am 27.0 - - - - SE 19 30 10 16 1016.2 - 0.0
19/11:00am 26.7 - - - - SE 19 28 10 15 1016.3 - 0.0
19/10:56am 26.6 - - - - SE 19 28 10 15 1016.4 - 0.0
19/10:52am 26.5 - - - - SE 19 26 10 14 1016.4 - 0.0
19/10:30am 26.7 - - - - SE 15 26 8 14 1016.4 - 0.0
19/10:22am 26.8 - - - - SE 17 30 9 16 1016.4 - 0.0
19/10:00am 26.4 - - - - SE 19 28 10 15 1016.3 1014.8 0.0
19/09:30am 26.2 - - - - SE 20 30 11 16 1016.1 - 0.0
19/09:00am 26.0 - - - - SE 19 30 10 16 1016.1 - 0.0
19/08:56am 26.0 - - - - SE 19 28 10 15 1015.9 - 0.0
19/08:30am 25.9 - - - - SE 17 24 9 13 1015.7 - 0.0
19/08:12am 25.6 - - - - SE 19 28 10 15 1015.6 - 0.0
19/08:00am 25.4 - - - - SE 20 26 11 14 1015.6 - 0.0
19/07:30am 24.4 - - - - SE 15 22 8 12 1015.1 - 0.0
19/07:06am 24.5 - - - - SE 17 22 9 12 1014.9 - 0.0
19/07:00am 24.4 - - - - SE 17 22 9 12 1014.8 1013.3 0.0
19/06:30am 24.1 - - - - SE 15 20 8 11 1014.3 - 0.0
19/06:28am 24.1 - - - - SE 15 20 8 11 1014.3 - 0.0
19/06:00am 23.9 - - - - ESE 15 20 8 11 1014.0 - 0.0
19/05:30am 23.8 - - - - SE 15 20 8 11 1014.0 - 0.0
19/05:00am 23.9 - - - - SE 15 20 8 11 1013.8 - 0.0
19/04:47am 24.0 - - - - SE 15 22 8 12 1013.8 - 0.0
19/04:31am 24.0 - - - - SE 15 22 8 12 1013.7 - 0.0
19/04:30am 24.1 - - - - SE 15 22 8 12 1013.7 - 0.0
19/04:00am 23.9 - - - - SE 15 22 8 12 1013.7 1012.2 0.0
19/03:30am 23.9 - - - - SE 17 22 9 12 1013.9 - 0.0
19/03:07am 24.0 - - - - SE 15 22 8 12 1014.0 - 0.0
19/03:00am 24.0 - - - - SE 17 22 9 12 1014.0 - 0.0
19/02:30am 24.3 - - - - SE 17 24 9 13 1014.3 - 0.0
19/02:00am 24.1 - - - - SE 15 20 8 11 1014.5 - 0.0
19/01:30am 24.2 - - - - SE 13 19 7 10 1014.8 - 0.0
19/01:00am 24.3 - - - - SE 17 24 9 13 1014.9 1013.4 0.0
19/12:30am 24.4 - - - - SE 17 24 9 13 1015.1 - 0.0
19/12:12am 24.4 - - - - SE 17 24 9 13 1015.2 - 0.0
19/12:00am 24.3 - - - - SE 17 24 9 13 1015.4 - 0.0
 
Date/Time
WST
Temp
°C
App
Temp
°C
Dew
Point
°C
Rel
Hum
%
Delta-T
°C
Wind Press
QNH
hPa
Press
MSL
hPa
Rain since
9am
mm
Dir  Spd
km/h
Gust
km/h
Spd
kts
Gust
kts
18/11:51pm 24.3 - - - - SE 17 24 9 13 1015.4 - 0.0
18/11:30pm 24.4 - - - - SE 17 24 9 13 1015.6 - 0.0
18/11:00pm 24.6 - - - - SE 15 24 8 13 1015.8 - 0.0
18/10:30pm 24.6 - - - - SE 17 24 9 13 1015.7 - 0.0
18/10:00pm 24.7 - - - - SE 15 26 8 14 1015.3 1013.8 0.0
18/09:58pm 24.6 - - - - SE 17 26 9 14 1015.3 - 0.0
18/09:30pm 24.4 - - - - SE 17 26 9 14 1015.2 - 0.0
18/09:00pm 24.5 - - - - SE 15 24 8 13 1014.9 - 0.0
18/08:33pm 24.6 - - - - SE 15 24 8 13 1014.6 - 0.0
18/08:30pm 24.5 - - - - SE 13 24 7 13 1014.5 - 0.0
18/08:00pm 24.7 - - - - SE 13 22 7 12 1014.0 - 0.0
18/07:30pm 24.7 - - - - SE 17 28 9 15 1013.7 - 0.0
18/07:00pm 24.9 - - - - SSE 15 24 8 13 1013.4 1011.9 0.0
18/06:30pm 25.2 - - - - SE 15 24 8 13 1013.2 - 0.0
18/06:00pm 25.7 - - - - SSE 13 20 7 11 1013.2 - 0.0
18/05:47pm 25.7 - - - - SSE 15 24 8 13 1013.1 - 0.0
18/05:34pm 26.0 - - - - SSE 13 20 7 11 1013.1 - 0.0
18/05:30pm 25.9 - - - - SSE 15 22 8 12 1013.1 - 0.0
18/05:20pm 26.0 - - - - SSE 15 22 8 12 1013.0 - 0.0
18/05:15pm 25.9 - - - - SSE 15 24 8 13 1013.0 - 0.0
18/05:00pm 26.5 - - - - SSE 13 22 7 12 1012.9 - 0.0
18/04:30pm 26.3 - - - - SSE 15 24 8 13 1012.9 - 0.0
18/04:00pm 26.7 - - - - SE 19 24 10 13 1013.2 1011.7 0.0
18/03:30pm 26.8 - - - - SSE 11 22 6 12 1013.5 - 0.0
18/03:00pm 26.7 - - - - SSE 13 24 7 13 1013.8 - 0.0
18/02:30pm 26.5 - - - - SE 15 26 8 14 1014.1 - 0.0
18/02:00pm 26.9 - - - - SSE 15 24 8 13 1014.5 - 0.0
18/01:30pm 27.0 - - - - SSE 13 22 7 12 1014.7 - 0.0
18/01:00pm 26.9 - - - - SSE 15 24 8 13 1015.2 1013.7 0.0
18/12:30pm 26.8 - - - - S 15 24 8 13 1015.6 - 0.0
18/12:00pm 26.8 - - - - SE 15 26 8 14 1015.9 - 0.0
18/11:30am 26.7 - - - - SE 17 24 9 13 1016.2 - 0.0
18/11:00am 26.6 - - - - SE 17 26 9 14 1016.4 - 0.0
18/10:30am 26.9 - - - - SE 17 26 9 14 1016.3 - 0.0
18/10:00am 26.8 - - - - SSE 17 24 9 13 1016.4 1014.9 0.0
18/09:30am 26.1 - - - - SE 13 24 7 13 1016.4 - 0.0
18/09:00am 25.8 - - - - SSE 15 26 8 14 1016.3 - 0.0
18/08:30am 25.6 - - - - SE 17 24 9 13 1015.9 - 0.0
18/08:04am 25.4 - - - - SE 17 24 9 13 1015.7 - 0.0
18/08:00am 25.3 - - - - SE 17 22 9 12 1015.7 - 0.0
18/07:55am 25.3 - - - - SE 15 22 8 12 1015.6 - 0.0
18/07:30am 25.1 - - - - SE 13 22 7 12 1015.2 - 0.0
18/07:00am 24.6 - - - - SSE 15 24 8 13 1014.6 1013.1 0.0
18/06:30am 24.4 - - - - SSE 13 24 7 13 1014.0 - 0.0
18/06:00am 24.4 - - - - SSE 13 20 7 11 1013.8 - 0.0
18/05:30am 24.3 - - - - SSE 11 20 6 11 1013.5 - 0.0
18/05:00am 24.4 - - - - SSE 11 17 6 9 1013.5 - 0.0
18/04:30am 24.5 - - - - SE 13 20 7 11 1013.6 - 0.0
18/04:00am 24.4 - - - - SSE 11 22 6 12 1013.4 1011.9 0.0
18/03:30am 24.4 - - - - SSE 11 20 6 11 1013.3 - 0.0
18/03:15am 24.3 - - - - S 9 17 5 9 1013.5 - 0.0
18/03:09am 24.3 - - - - S 9 17 5 9 1013.6 - 0.0
18/03:00am 24.4 - - - - S 9 15 5 8 1013.8 - 0.0
18/02:30am 24.4 - - - - S 7 13 4 7 1013.9 - 0.0
18/02:19am 24.4 - - - - S 9 13 5 7 1014.0 - 0.0
18/02:03am 24.3 - - - - SSE 9 17 5 9 1014.0 - 0.0
18/02:00am 24.3 - - - - SSE 9 17 5 9 1014.0 - 0.0
18/01:30am 24.5 - - - - S 9 19 5 10 1014.1 - 0.0
18/01:02am 24.5 - - - - S 9 15 5 8 1014.3 - 0.0
18/01:00am 24.4 - - - - S 9 15 5 8 1014.3 1012.8 0.0
18/12:31am 24.4 - - - - S 9 13 5 7 1014.7 - 0.0
18/12:30am 24.4 - - - - S 7 13 4 7 1014.7 - 0.0
18/12:00am 24.3 - - - - S 7 11 4 6 1015.1 - 0.0
 
Date/Time
WST
Temp
°C
App
Temp
°C
Dew
Point
°C
Rel
Hum
%
Delta-T
°C
Wind Press
QNH
hPa
Press
MSL
hPa
Rain since
9am
mm
Dir  Spd
km/h
Gust
km/h
Spd
kts
Gust
kts
17/11:41pm 24.4 - - - - S 6 11 3 6 1015.2 - 0.0
17/11:31pm 24.3 - - - - S 6 9 3 5 1015.2 - 0.0
17/11:30pm 24.4 - - - - S 6 9 3 5 1015.2 - 0.0
17/11:00pm 24.5 - - - - S 6 9 3 5 1015.4 - 0.0
17/10:41pm 24.4 - - - - S 7 11 4 6 1015.3 - 0.0
17/10:30pm 24.4 - - - - S 7 11 4 6 1015.3 - 0.0
17/10:00pm 24.2 - - - - SSW 7 9 4 5 1014.9 1013.4 0.0
17/09:30pm 24.2 - - - - SSW 6 9 3 5 1014.8 - 0.0
17/09:00pm 24.3 - - - - SSW 6 7 3 4 1014.6 - 0.0
17/08:30pm 24.4 - - - - SSW 6 9 3 5 1014.3 - 0.0
17/08:00pm 24.5 - - - - SSW 2 7 1 4 1013.8 - 0.0
17/07:30pm 24.8 - - - - SSW 6 7 3 4 1013.4 - 0.0
17/07:00pm 25.2 - - - - S 6 11 3 6 1013.0 1011.5 0.0
17/06:30pm 25.5 - - - - S 6 9 3 5 1012.9 - 0.0
17/06:00pm 26.2 - - - - SSE 7 13 4 7 1012.6 - 0.0
17/05:30pm 26.5 - - - - SE 7 13 4 7 1012.3 - 0.0
17/05:19pm 26.3 - - - - SSE 9 17 5 9 1012.4 - 0.0
17/05:00pm 26.3 - - - - S 9 15 5 8 1012.3 - 0.0
17/04:39pm 26.7 - - - - SSE 9 15 5 8 1012.3 - 0.0
17/04:30pm 27.0 - - - - SSE 9 17 5 9 1012.3 - 0.0
17/04:00pm 26.6 - - - - SSE 9 15 5 8 1012.1 1010.5 0.0
17/03:51pm 27.0 - - - - SE 9 13 5 7 1012.2 - 0.0
17/03:30pm 27.0 - - - - SE 11 17 6 9 1012.2 - 0.0
17/03:00pm 27.9 - - - - SE 11 20 6 11 1012.5 - 0.0
17/02:30pm 28.0 - - - - SE 11 19 6 10 1012.7 - 0.0
17/02:00pm 28.4 - - - - SE 11 17 6 9 1013.1 - 0.0
17/01:51pm 28.2 - - - - SE 11 20 6 11 1013.2 - 0.0
17/01:30pm 28.2 - - - - SSE 11 15 6 8 1013.6 - 0.0
17/01:00pm 27.1 - - - - SSE 11 19 6 10 1013.9 1012.4 0.0
17/12:30pm 27.0 - - - - SSE 13 19 7 10 1014.4 - 0.0
17/12:00pm 27.0 - - - - SSE 11 20 6 11 1014.6 - 0.0
17/11:30am 26.9 - - - - ESE 17 24 9 13 1014.8 - 0.0
17/11:00am 27.0 - - - - SE 15 22 8 12 1015.1 - 0.0
17/10:30am 26.3 - - - - ESE 15 22 8 12 1015.4 - 0.0
17/10:00am 26.8 - - - - E 19 24 10 13 1015.4 1013.9 0.0
17/09:30am 25.9 - - - - SE 15 22 8 12 1015.5 - 0.0
17/09:00am 25.7 - - - - ESE 19 24 10 13 1015.2 - 0.0
17/08:30am 25.5 - - - - SE 15 24 8 13 1015.4 - 0.0
17/08:00am 25.4 - - - - SE 15 22 8 12 1015.3 - 0.0
17/07:30am 25.0 - - - - SE 15 20 8 11 1014.9 - 0.0
17/07:00am 24.7 - - - - SE 15 22 8 12 1014.7 1013.2 0.0
17/06:30am 24.6 - - - - SE 13 20 7 11 1014.5 - 0.0
17/06:11am 24.6 - - - - SE 13 19 7 10 1014.3 - 0.0
17/06:00am 24.6 - - - - SE 13 20 7 11 1014.3 - 0.0
17/05:58am 24.6 - - - - SE 13 20 7 11 1014.3 - 0.0
17/05:51am 24.6 - - - - SE 13 19 7 10 1014.2 - 0.0
17/05:30am 24.6 - - - - SE 11 17 6 9 1014.1 - 0.0
17/05:22am 24.6 - - - - SSE 6 15 3 8 1014.0 - 0.0
17/05:15am 24.5 - - - - SSE 4 9 2 5 1014.0 - 0.0
17/05:14am 24.5 - - - - SSE 4 9 2 5 1014.0 - 0.0
17/05:00am 24.5 - - - - SSE 9 13 5 7 - - 0.0
17/04:54am 24.6 - - - - SSE 9 13 5 7 1013.9 - 0.0
17/04:51am 24.6 - - - - SSE 9 13 5 7 1013.8 - 0.0
17/04:30am 24.6 - - - - SE 9 13 5 7 1013.7 - 0.0
17/04:00am 24.5 - - - - SSE 7 11 4 6 1013.6 1012.1 0.0
17/03:30am 24.6 - - - - SE 9 17 5 9 1013.7 - 0.0
17/03:00am 24.7 - - - - SE 11 15 6 8 1013.8 - 0.0
17/02:30am 24.6 - - - - SE 7 13 4 7 1013.8 - 0.0
17/02:00am 24.5 - - - - SSE 4 9 2 5 1014.0 - 0.0
17/01:30am 24.6 - - - - SSE 6 9 3 5 1014.4 - 0.0
17/01:00am 24.5 - - - - ESE 6 7 3 4 1014.7 1013.2 0.0
17/12:30am 24.5 - - - - E 7 9 4 5 1014.8 - 0.0
17/12:00am 24.2 - - - - CALM 0 0 0 0 1014.9 - 0.0
 
Date/Time
WST
Temp
°C
App
Temp
°C
Dew
Point
°C
Rel
Hum
%
Delta-T
°C
Wind Press
QNH
hPa
Press
MSL
hPa
Rain since
9am
mm
Dir  Spd
km/h
Gust
km/h
Spd
kts
Gust
kts
16/11:30pm 23.9 - - - - CALM 0 0 0 0 1015.1 - 0.0
16/11:27pm 23.9 - - - - CALM 0 0 0 0 1015.1 - 0.0
16/11:24pm 23.8 - - - - CALM 0 0 0 0 1015.1 - 0.0

Other Formats:

Comma delimited format used in spreadsheet applications
http://www.bom.gov.au/fwo/IDW60801/IDW60801.96995.axf

JavaScript Object Notation format (JSON) in row-major order
http://www.bom.gov.au/fwo/IDW60801/IDW60801.96995.json